Time;durP1;ratioP1;P1;durP2;ratioP2;P2;SDS_P1;SDS_P2;PMS_P1;PMS_P2;Temp;Humidity;BMP_temperature;BMP_pressure;BME280_temperature;BME280_humidity;BME280_pressure;Samples;Min_cycle;Max_cycle;Signal;HPM_P1;HPM_P2
2024/01/27 00:02:24;;;;;;;0.50;0.10;;;8.10;3.90;;;;;;5073328;28;20463;-74
2024/01/27 00:04:53;;;;;;;0.50;0.10;;;8.20;3.60;;;;;;5073739;28;20473;-73
2024/01/27 00:07:21;;;;;;;0.50;0.10;;;8.20;2.90;;;;;;5074011;28;20459;-72
2024/01/27 00:09:49;;;;;;;0.50;0.10;;;8.10;4.20;;;;;;5073413;28;20857;-74
2024/01/27 00:12:18;;;;;;;0.50;0.10;;;8.10;4.90;;;;;;5073777;28;20468;-73
2024/01/27 00:14:46;;;;;;;0.50;0.10;;;8.10;6.20;;;;;;5073929;28;20435;-75
2024/01/27 00:17:13;;;;;;;0.50;0.10;;;8.10;6.20;;;;;;5073599;28;20548;-73
2024/01/27 00:19:41;;;;;;;1.80;1.70;;;8.00;6.90;;;;;;5072860;28;20600;-73
2024/01/27 00:22:11;;;;;;;0.50;0.10;;;7.90;8.30;;;;;;5073297;28;20932;-73
2024/01/27 00:24:38;;;;;;;0.50;0.10;;;7.90;9.40;;;;;;5073321;28;20497;-73
2024/01/27 00:27:06;;;;;;;0.60;0.30;;;7.90;10.80;;;;;;5073726;28;20502;-72
2024/01/27 00:29:34;;;;;;;0.50;0.10;;;7.90;11.40;;;;;;5073383;28;20494;-74
2024/01/27 00:32:02;;;;;;;0.50;0.10;;;7.80;11.80;;;;;;5077627;28;20888;-73
2024/01/27 00:34:30;;;;;;;0.50;0.10;;;7.80;11.00;;;;;;5080216;28;20453;-74
2024/01/27 00:36:58;;;;;;;0.70;0.30;;;7.80;9.40;;;;;;5072790;28;20474;-74
2024/01/27 00:39:27;;;;;;;0.50;0.20;;;7.70;7.10;;;;;;5081674;28;20472;-73
2024/01/27 00:41:58;;;;;;;0.50;0.10;;;7.60;7.70;;;;;;5081592;28;20448;-72
2024/01/27 00:44:26;;;;;;;0.50;0.10;;;7.70;7.70;;;;;;5081710;28;20484;-75
2024/01/27 00:46:54;;;;;;;0.50;0.10;;;7.70;8.40;;;;;;5081143;28;20865;-74
2024/01/27 00:49:22;;;;;;;0.50;0.10;;;7.60;9.30;;;;;;5081683;28;20489;-75
2024/01/27 00:51:50;;;;;;;0.50;0.10;;;7.60;9.70;;;;;;5076145;28;20459;-75
2024/01/27 00:54:18;;;;;;;0.50;0.10;;;7.60;9.50;;;;;;5084226;28;20446;-74
2024/01/27 00:56:48;;;;;;;0.50;0.10;;;7.60;8.80;;;;;;5084892;28;20478;-74
2024/01/27 00:59:16;;;;;;;0.50;0.10;;;7.60;9.20;;;;;;5082358;28;20492;-77
2024/01/27 01:01:44;;;;;;;0.50;0.10;;;7.60;8.50;;;;;;5081804;28;20441;-73
2024/01/27 01:04:12;;;;;;;0.50;0.10;;;7.60;8.60;;;;;;5082896;28;20487;-73
2024/01/27 01:06:40;;;;;;;0.50;0.10;;;7.60;8.10;;;;;;5083445;28;20485;-73
2024/01/27 01:09:08;;;;;;;0.50;0.30;;;7.50;8.00;;;;;;5083559;28;20445;-74
2024/01/27 01:11:36;;;;;;;0.50;0.10;;;7.50;7.70;;;;;;5081275;28;20449;-74
2024/01/27 01:14:08;;;;;;;0.50;0.10;;;7.50;7.40;;;;;;5082066;28;20444;-73
2024/01/27 01:16:36;;;;;;;0.50;0.10;;;7.50;7.90;;;;;;5084486;28;20494;-73
2024/01/27 01:19:04;;;;;;;0.50;0.10;;;7.50;9.10;;;;;;5083862;28;20477;-73
2024/01/27 01:21:32;;;;;;;0.50;0.10;;;7.40;7.70;;;;;;5081278;28;20443;-75
2024/01/27 01:24:00;;;;;;;0.50;0.10;;;7.40;8.10;;;;;;5080329;28;20491;-72
2024/01/27 01:26:28;;;;;;;0.50;0.10;;;7.50;7.90;;;;;;5081316;28;20499;-73
2024/01/27 01:28:56;;;;;;;0.50;0.10;;;7.40;7.50;;;;;;5084135;28;20481;-73
2024/01/27 01:31:25;;;;;;;0.50;0.10;;;7.30;7.10;;;;;;5084643;28;20447;-73
2024/01/27 01:33:53;;;;;;;0.50;0.10;;;7.30;7.50;;;;;;5092722;28;20449;-73
2024/01/27 01:36:21;;;;;;;0.50;0.10;;;7.30;8.10;;;;;;5092864;28;20470;-73
2024/01/27 01:38:49;;;;;;;0.53;0.23;;;7.20;8.00;;;;;;5082853;28;21042;-73
2024/01/27 01:41:17;;;;;;;0.50;0.10;;;7.20;8.50;;;;;;5072417;28;20491;-73
2024/01/27 01:43:45;;;;;;;0.50;0.10;;;7.20;9.10;;;;;;5072317;28;20500;-72
2024/01/27 01:46:13;;;;;;;0.57;0.20;;;7.20;9.90;;;;;;5072620;28;20443;-74
2024/01/27 01:48:42;;;;;;;10.60;0.40;;;7.10;10.20;;;;;;5080579;28;20867;-73
2024/01/27 01:51:11;;;;;;;0.50;0.10;;;7.00;11.20;;;;;;5071765;28;20449;-73
2024/01/27 01:53:39;;;;;;;0.50;0.10;;;7.00;11.80;;;;;;5072950;28;20549;-73
2024/01/27 01:56:08;;;;;;;0.50;0.10;;;6.90;12.60;;;;;;5073754;28;20472;-73
2024/01/27 01:58:36;;;;;;;0.50;0.20;;;6.90;14.20;;;;;;5073153;28;20526;-73
2024/01/27 02:01:04;;;;;;;0.50;0.10;;;6.90;15.10;;;;;;5081272;28;20557;-73
2024/01/27 02:03:32;;;;;;;0.50;0.10;;;7.00;16.00;;;;;;5081442;28;20449;-74
2024/01/27 02:06:02;;;;;;;0.50;0.10;;;;;;;;;;5072475;28;20979;-74
2024/01/27 02:08:30;;;;;;;0.50;0.10;;;7.00;17.30;;;;;;5072178;28;20488;-74
2024/01/27 02:11:01;;;;;;;1.23;1.20;;;7.00;18.00;;;;;;5072325;28;20449;-74
2024/01/27 02:13:28;;;;;;;0.50;0.10;;;7.00;18.20;;;;;;5071486;28;20512;-74
2024/01/27 02:15:56;;;;;;;1.23;1.13;;;7.00;19.50;;;;;;5071955;28;20930;-73
2024/01/27 02:18:25;;;;;;;0.50;0.10;;;5.10;18.80;;;;;;5071874;28;20492;-74
2024/01/27 02:20:53;;;;;;;0.50;0.10;;;7.00;20.00;;;;;;5072005;28;20442;-74
2024/01/27 02:23:22;;;;;;;0.50;0.10;;;7.10;19.90;;;;;;5080212;28;20500;-73
2024/01/27 02:25:51;;;;;;;0.50;0.10;;;7.00;20.40;;;;;;5080551;28;20531;-74
2024/01/27 02:28:19;;;;;;;0.50;0.10;;;7.00;20.20;;;;;;5072082;28;20902;-74
2024/01/27 02:30:47;;;;;;;0.50;0.10;;;7.00;19.80;;;;;;5071241;28;20508;-75
2024/01/27 02:33:15;;;;;;;0.50;0.10;;;7.00;20.50;;;;;;5072124;28;20479;-73
2024/01/27 02:35:43;;;;;;;0.50;0.10;;;7.00;21.00;;;;;;5072014;28;20468;-73
2024/01/27 02:38:11;;;;;;;0.50;0.10;;;6.90;22.00;;;;;;5071748;28;20974;-72
2024/01/27 02:40:39;;;;;;;0.50;0.10;;;7.00;23.10;;;;;;5072053;28;20992;-73
2024/01/27 02:43:08;;;;;;;0.50;0.10;;;3.80;21.40;;;;;;5072302;28;20535;-72
2024/01/27 02:45:36;;;;;;;0.50;0.10;;;7.10;23.60;;;;;;5072541;28;20569;-73
2024/01/27 02:48:04;;;;;;;0.50;0.10;;;7.10;24.30;;;;;;5071647;28;20909;-74
2024/01/27 02:50:32;;;;;;;0.50;0.10;;;7.10;23.40;;;;;;5072438;28;20446;-74
2024/01/27 02:53:00;;;;;;;0.50;0.10;;;7.10;23.50;;;;;;5080500;28;20475;-74
2024/01/27 02:55:28;;;;;;;0.50;0.10;;;7.00;21.70;;;;;;5073231;28;20476;-74
2024/01/27 02:57:56;;;;;;;0.50;0.10;;;7.00;21.30;;;;;;5073227;28;20476;-74
2024/01/27 03:00:25;;;;;;;0.50;0.10;;;7.00;21.40;;;;;;5074452;28;20524;-74
2024/01/27 03:02:54;;;;;;;0.50;0.10;;;7.00;22.30;;;;;;5077254;28;20439;-73
2024/01/27 03:05:22;;;;;;;0.50;0.10;;;7.00;20.90;;;;;;5076157;28;20483;-74
2024/01/27 03:07:49;;;;;;;0.50;0.10;;;6.90;19.70;;;;;;5077131;28;20471;-73
2024/01/27 03:10:17;;;;;;;0.50;0.10;;;6.80;20.80;;;;;;5076183;28;20503;-73
2024/01/27 03:12:45;;;;;;;0.50;0.10;;;6.80;21.10;;;;;;5075915;28;20450;-73
2024/01/27 03:15:13;;;;;;;0.50;0.10;;;6.80;21.40;;;;;;5094290;28;20496;-72
2024/01/27 03:17:42;;;;;;;0.50;0.10;;;6.70;21.50;;;;;;5096645;28;20468;-74
2024/01/27 03:20:11;;;;;;;0.50;0.10;;;6.70;21.30;;;;;;5096447;28;20531;-74
2024/01/27 03:22:40;;;;;;;0.50;0.10;;;6.60;21.20;;;;;;5096123;28;20514;-72
2024/01/27 03:25:09;;;;;;;0.50;0.10;;;6.70;22.00;;;;;;5096066;28;20472;-73
2024/01/27 03:27:38;;;;;;;0.50;0.10;;;6.60;21.00;;;;;;5084276;28;20578;-73
2024/01/27 03:30:07;;;;;;;0.50;0.10;;;6.60;22.00;;;;;;5075211;28;20818;-73
2024/01/27 03:32:35;;;;;;;0.50;0.10;;;6.60;22.80;;;;;;5075475;28;20442;-73
2024/01/27 03:35:05;;;;;;;0.50;0.10;;;6.50;22.50;;;;;;5075614;28;20443;-72
2024/01/27 03:37:34;;;;;;;0.50;0.10;;;6.60;24.40;;;;;;5075387;28;20476;-74
2024/01/27 03:40:02;;;;;;;0.50;0.10;;;6.60;23.30;;;;;;5074815;28;20485;-74
2024/01/27 03:42:29;;;;;;;0.50;0.10;;;6.50;22.90;;;;;;5078003;28;20442;-74
2024/01/27 03:44:57;;;;;;;0.50;0.10;;;6.50;23.40;;;;;;5080198;28;20535;-74
2024/01/27 03:47:25;;;;;;;0.50;0.10;;;6.50;24.80;;;;;;5074868;28;20891;-72
2024/01/27 03:49:53;;;;;;;0.50;0.10;;;6.60;25.60;;;;;;5083185;28;20490;-73
2024/01/27 03:52:23;;;;;;;0.50;0.10;;;6.50;25.90;;;;;;5074468;28;20933;-73
2024/01/27 03:54:51;;;;;;;0.50;0.10;;;6.60;26.50;;;;;;5075037;28;20438;-77
2024/01/27 03:57:19;;;;;;;0.50;0.10;;;6.60;26.40;;;;;;5081151;28;21020;-73
2024/01/27 03:59:48;;;;;;;0.50;0.10;;;6.60;26.60;;;;;;5080142;28;20532;-73
2024/01/27 04:02:15;;;;;;;0.50;0.10;;;6.60;27.40;;;;;;5094972;28;20453;-75
2024/01/27 04:04:43;;;;;;;0.50;0.10;;;6.60;26.90;;;;;;5084933;28;20535;-72
2024/01/27 04:07:11;;;;;;;0.50;0.10;;;6.60;27.00;;;;;;5075132;28;20512;-72
2024/01/27 04:09:40;;;;;;;0.50;0.10;;;6.60;27.30;;;;;;5074091;28;20442;-73
2024/01/27 04:12:08;;;;;;;0.50;0.10;;;6.60;27.90;;;;;;5073017;28;20463;-73
2024/01/27 04:14:37;;;;;;;0.50;0.10;;;6.60;28.20;;;;;;5080221;28;20442;-73
2024/01/27 04:17:05;;;;;;;0.50;0.10;;;6.60;28.30;;;;;;5074108;28;20484;-73
2024/01/27 04:19:33;;;;;;;0.50;0.10;;;6.60;28.30;;;;;;5074646;28;20528;-73
2024/01/27 04:22:01;;;;;;;0.50;0.10;;;6.50;27.60;;;;;;5074405;28;20441;-73
2024/01/27 04:24:30;;;;;;;0.50;0.10;;;6.50;27.50;;;;;;5074517;28;20539;-73
2024/01/27 04:27:02;;;;;;;0.50;0.10;;;6.50;27.80;;;;;;5075154;28;20481;-73
2024/01/27 04:29:30;;;;;;;0.50;0.10;;;6.40;27.50;;;;;;5075700;28;20443;-73
2024/01/27 04:31:58;;;;;;;0.50;0.10;;;6.40;27.40;;;;;;5075151;28;20544;-74
2024/01/27 04:34:25;;;;;;;0.50;0.10;;;6.40;27.80;;;;;;5086792;28;20480;-73
2024/01/27 04:36:53;;;;;;;0.50;0.10;;;6.40;27.60;;;;;;5095499;28;20832;-73
2024/01/27 04:39:21;;;;;;;0.50;0.10;;;6.40;27.90;;;;;;5095796;28;20468;-73
2024/01/27 04:41:49;;;;;;;0.50;0.10;;;6.30;28.10;;;;;;5095769;28;20447;-73
2024/01/27 04:44:20;;;;;;;0.90;0.73;;;6.30;28.50;;;;;;5095254;28;20442;-73
2024/01/27 04:46:48;;;;;;;0.50;0.10;;;6.30;28.70;;;;;;5094298;28;20566;-73
2024/01/27 04:49:16;;;;;;;0.50;0.10;;;6.30;29.00;;;;;;5075814;28;20511;-75
2024/01/27 04:51:45;;;;;;;0.50;0.10;;;6.30;29.60;;;;;;5073370;28;20454;-74
2024/01/27 04:54:13;;;;;;;0.50;0.10;;;6.30;30.10;;;;;;5074486;28;20472;-73
2024/01/27 04:56:41;;;;;;;0.50;0.10;;;6.30;30.00;;;;;;5078014;28;20934;-73
2024/01/27 04:59:09;;;;;;;0.50;0.10;;;6.30;29.90;;;;;;5077723;28;20446;-73
2024/01/27 05:01:38;;;;;;;0.50;0.10;;;6.20;29.90;;;;;;5073483;28;20449;-74
2024/01/27 05:04:06;;;;;;;0.50;0.10;;;6.20;30.30;;;;;;5073735;28;20514;-73
2024/01/27 05:06:34;;;;;;;2.37;2.27;;;6.10;29.70;;;;;;5083553;28;20576;-72
2024/01/27 05:09:02;;;;;;;0.50;0.10;;;6.00;29.60;;;;;;5093661;28;20513;-73
2024/01/27 05:11:31;;;;;;;0.50;0.10;;;5.80;29.60;;;;;;5092686;28;20448;-72
2024/01/27 05:13:59;;;;;;;0.50;0.10;;;5.70;29.70;;;;;;5080625;28;20524;-73
2024/01/27 05:16:28;;;;;;;0.50;0.10;;;5.70;30.60;;;;;;5072927;28;20453;-74
2024/01/27 05:18:57;;;;;;;0.50;0.10;;;5.70;32.50;;;;;;5072256;28;20516;-72
2024/01/27 05:21:25;;;;;;;0.50;0.10;;;5.70;33.20;;;;;;5081420;28;20456;-74
2024/01/27 05:23:53;;;;;;;0.50;0.10;;;5.70;33.90;;;;;;5092150;28;20458;-73
2024/01/27 05:26:21;;;;;;;0.50;0.10;;;5.60;35.30;;;;;;5092059;28;20558;-72
2024/01/27 05:28:48;;;;;;;0.50;0.10;;;5.60;35.70;;;;;;5090995;28;20509;-73
2024/01/27 05:31:16;;;;;;;0.50;0.10;;;5.50;36.20;;;;;;5091929;28;20447;-73
2024/01/27 05:33:44;;;;;;;0.50;0.10;;;5.50;36.90;;;;;;5079646;28;20539;-73
2024/01/27 05:36:14;;;;;;;0.50;0.20;;;5.50;37.30;;;;;;5080248;28;20433;-73
2024/01/27 05:38:41;;;;;;;0.50;0.20;;;5.40;38.10;;;;;;5080286;28;21074;-73
2024/01/27 05:41:09;;;;;;;0.50;0.10;;;5.40;40.20;;;;;;5079466;28;20958;-74
2024/01/27 05:43:37;;;;;;;1.90;0.30;;;5.30;39.90;;;;;;5072223;28;20447;-74
2024/01/27 05:46:04;;;;;;;0.50;0.10;;;5.20;40.30;;;;;;5070727;28;20491;-72
2024/01/27 05:48:33;;;;;;;0.50;0.10;;;5.20;42.20;;;;;;5071434;28;20497;-73
2024/01/27 05:51:02;;;;;;;0.50;0.10;;;;;;;;;;5071803;28;20856;-73
2024/01/27 05:53:31;;;;;;;0.50;0.10;;;5.30;47.50;;;;;;5071400;28;21121;-76
2024/01/27 05:55:59;;;;;;;0.50;0.10;;;5.30;48.10;;;;;;5072084;28;20880;-73
2024/01/27 05:58:27;;;;;;;0.50;0.10;;;5.30;49.50;;;;;;5071797;28;20441;-73
2024/01/27 06:00:54;;;;;;;0.50;0.10;;;5.30;50.10;;;;;;5071460;28;20943;-72
2024/01/27 06:03:22;;;;;;;0.50;0.10;;;5.20;49.30;;;;;;5074075;28;20560;-75
2024/01/27 06:05:50;;;;;;;0.50;0.10;;;5.20;48.80;;;;;;5076626;28;20441;-73
2024/01/27 06:08:19;;;;;;;0.50;0.10;;;5.10;49.40;;;;;;5091806;28;20456;-72
2024/01/27 06:10:49;;;;;;;0.50;0.20;;;5.00;50.80;;;;;;5091676;28;20448;-73
2024/01/27 06:13:17;;;;;;;0.50;0.10;;;5.10;52.90;;;;;;5084234;28;20452;-73
2024/01/27 06:15:44;;;;;;;0.50;0.10;;;5.10;53.60;;;;;;5071671;28;20529;-73
2024/01/27 06:18:12;;;;;;;0.50;0.10;;;5.00;53.70;;;;;;5071547;28;20807;-72
2024/01/27 06:20:40;;;;;;;0.50;0.10;;;5.00;54.80;;;;;;5081848;28;20513;-74
2024/01/27 06:23:08;;;;;;;0.50;0.10;;;5.00;55.60;;;;;;5091498;28;20510;-72
2024/01/27 06:25:36;;;;;;;0.50;0.10;;;5.00;56.10;;;;;;5093091;28;20448;-73
2024/01/27 06:28:06;;;;;;;0.50;0.10;;;4.90;56.00;;;;;;5096613;28;20484;-71
2024/01/27 06:30:34;;;;;;;0.50;0.10;;;4.90;57.50;;;;;;5074830;28;20542;-73
2024/01/27 06:33:02;;;;;;;2.80;0.77;;;4.90;59.20;;;;;;5074815;28;20445;-73
2024/01/27 06:35:30;;;;;;;0.50;0.10;;;4.90;58.80;;;;;;5076811;28;20444;-73
2024/01/27 06:37:58;;;;;;;1.10;0.80;;;4.70;58.80;;;;;;5075267;28;20536;-73
2024/01/27 06:40:26;;;;;;;0.50;0.20;;;4.60;60.80;;;;;;5073472;28;20441;-73
2024/01/27 06:42:53;;;;;;;0.50;0.10;;;4.40;64.30;;;;;;5071422;28;20946;-73
2024/01/27 06:45:23;;;;;;;0.50;0.10;;;4.30;70.60;;;;;;5079025;28;20452;-74
2024/01/27 06:47:51;;;;;;;0.50;0.13;;;4.10;76.80;;;;;;5089891;28;20559;-74
2024/01/27 06:50:19;;;;;;;1.37;0.93;;;4.10;83.80;;;;;;5071119;28;20953;-73
2024/01/27 06:52:47;;;;;;;0.60;0.60;;;4.00;90.10;;;;;;5071169;28;20472;-72
2024/01/27 06:55:15;;;;;;;0.50;0.20;;;4.00;91.50;;;;;;5074128;28;21009;-73
2024/01/27 06:57:43;;;;;;;1.53;1.43;;;4.00;93.50;;;;;;5072269;28;21163;-74
2024/01/27 07:00:14;;;;;;;0.50;0.10;;;4.00;95.20;;;;;;5080472;28;20452;-73
2024/01/27 07:02:43;;;;;;;0.60;0.30;;;4.00;96.40;;;;;;5080050;28;20460;-74
2024/01/27 07:05:12;;;;;;;0.50;0.10;;;4.00;97.20;;;;;;5071880;28;20974;-73
2024/01/27 07:07:40;;;;;;;0.50;0.10;;;3.90;99.10;;;;;;5071499;28;21036;-73
2024/01/27 07:10:09;;;;;;;0.50;0.10;;;3.90;99.90;;;;;;5070804;28;20525;-73
2024/01/27 07:12:37;;;;;;;0.50;0.10;;;4.00;99.90;;;;;;5072512;28;20536;-73
2024/01/27 07:15:06;;;;;;;0.50;0.10;;;4.10;99.90;;;;;;5075117;28;20849;-74
2024/01/27 07:17:34;;;;;;;0.50;0.10;;;4.20;99.90;;;;;;5069792;28;20473;-74
2024/01/27 07:20:04;;;;;;;0.50;0.10;;;4.30;99.90;;;;;;5071174;28;20491;-73
2024/01/27 07:22:33;;;;;;;0.50;0.10;;;4.30;99.90;;;;;;5070782;28;20528;-74
2024/01/27 07:25:01;;;;;;;0.50;0.10;;;4.30;99.90;;;;;;5070787;28;20929;-73
2024/01/27 07:27:29;;;;;;;0.50;0.10;;;4.30;99.90;;;;;;5071073;28;20477;-73
2024/01/27 07:29:57;;;;;;;0.50;0.10;;;4.40;99.90;;;;;;5070146;28;20976;-74
2024/01/27 07:32:26;;;;;;;0.50;0.10;;;;;;;;;;5071114;28;20487;-74
2024/01/27 07:34:53;;;;;;;0.50;0.10;;;4.40;99.90;;;;;;5071194;28;20459;-73
2024/01/27 07:37:23;;;;;;;0.50;0.10;;;4.50;99.90;;;;;;5071756;28;20823;-74
2024/01/27 07:39:50;;;;;;;0.50;0.10;;;4.50;99.90;;;;;;5072619;28;20477;-75
2024/01/27 07:42:18;;;;;;;0.50;0.10;;;4.50;99.90;;;;;;5072179;28;20532;-74
2024/01/27 07:44:46;;;;;;;0.50;0.10;;;4.50;98.90;;;;;;5070521;28;20525;-73
2024/01/27 07:47:14;;;;;;;0.50;0.10;;;4.60;97.50;;;;;;5080923;28;20516;-74
2024/01/27 07:49:43;;;;;;;0.50;0.10;;;4.50;96.30;;;;;;5074528;28;20437;-72
2024/01/27 07:52:11;;;;;;;0.50;0.10;;;4.50;95.20;;;;;;5077196;28;20496;-74
2024/01/27 07:54:40;;;;;;;0.50;0.10;;;4.50;94.40;;;;;;5076542;28;20501;-74
2024/01/27 07:57:08;;;;;;;0.50;0.10;;;4.40;93.40;;;;;;5075746;28;20480;-73
2024/01/27 07:59:36;;;;;;;0.50;0.10;;;4.40;93.50;;;;;;5086597;28;20493;-73
2024/01/27 08:02:04;;;;;;;0.50;0.20;;;4.40;93.10;;;;;;5075248;28;20489;-74
2024/01/27 08:04:32;;;;;;;0.50;0.10;;;4.40;93.80;;;;;;5085099;28;20487;-71
2024/01/27 08:07:05;;;;;;;0.50;0.10;;;4.50;94.20;;;;;;5078808;28;20465;-74
2024/01/27 08:09:34;;;;;;;0.50;0.10;;;4.50;94.10;;;;;;5079011;28;20441;-74
2024/01/27 08:12:04;;;;;;;0.60;0.33;;;4.50;94.70;;;;;;5078741;28;20429;-74
2024/01/27 08:14:33;;;;;;;0.50;0.10;;;4.60;94.60;;;;;;5088340;28;20470;-73
2024/01/27 08:17:00;;;;;;;0.50;0.10;;;4.60;94.20;;;;;;5081930;28;20487;-74
2024/01/27 08:19:28;;;;;;;0.50;0.10;;;4.70;94.40;;;;;;5085439;28;20438;-74
2024/01/27 08:21:56;;;;;;;0.50;0.10;;;4.70;94.00;;;;;;5076754;28;20469;-74
2024/01/27 08:24:24;;;;;;;0.50;0.10;;;4.70;93.70;;;;;;5081848;28;20445;-73
2024/01/27 08:26:52;;;;;;;0.50;0.10;;;4.80;93.30;;;;;;5075206;28;20488;-73
2024/01/27 08:29:22;;;;;;;0.50;0.10;;;4.80;93.60;;;;;;5085613;28;20488;-75
2024/01/27 08:31:50;;;;;;;0.50;0.10;;;4.90;93.40;;;;;;5076069;28;20516;-75
2024/01/27 08:34:18;;;;;;;0.50;0.10;;;4.90;92.50;;;;;;5084663;28;20457;-75
2024/01/27 08:36:46;;;;;;;0.50;0.10;;;5.00;91.80;;;;;;5084624;28;20556;-75
2024/01/27 08:39:14;;;;;;;0.50;0.10;;;4.90;90.00;;;;;;5081107;28;20491;-74
2024/01/27 08:41:42;;;;;;;0.50;0.10;;;4.90;88.90;;;;;;5083827;28;20908;-75
2024/01/27 08:44:10;;;;;;;0.50;0.10;;;4.90;88.90;;;;;;5085925;28;20475;-74
2024/01/27 08:46:39;;;;;;;0.50;0.10;;;4.90;88.10;;;;;;5077532;28;21011;-74
2024/01/27 08:49:07;;;;;;;0.50;0.10;;;4.90;87.50;;;;;;5081096;28;20850;-74
2024/01/27 08:51:35;;;;;;;0.50;0.10;;;4.90;88.20;;;;;;5076478;28;20449;-73
2024/01/27 08:54:03;;;;;;;0.50;0.10;;;4.90;88.30;;;;;;5075963;28;20457;-75
2024/01/27 08:56:31;;;;;;;0.50;0.10;;;4.90;87.60;;;;;;5077299;28;20501;-74
2024/01/27 08:58:59;;;;;;;0.50;0.10;;;5.00;88.80;;;;;;5080267;28;20430;-74
2024/01/27 09:01:27;;;;;;;0.50;0.10;;;5.00;87.90;;;;;;5077201;28;20453;-74
2024/01/27 09:03:57;;;;;;;0.50;0.10;;;;;;;;;;5079270;28;20446;-74
2024/01/27 09:06:25;;;;;;;0.50;0.10;;;5.10;87.10;;;;;;5072950;28;20478;-74
2024/01/27 09:08:58;;;;;;;0.50;0.10;;;5.10;86.90;;;;;;5081139;28;20498;-73
2024/01/27 09:11:27;;;;;;;0.50;0.10;;;5.10;86.20;;;;;;5079388;28;20543;-74
2024/01/27 09:13:55;;;;;;;0.50;0.10;;;5.20;86.30;;;;;;5073957;28;20484;-74
2024/01/27 09:16:23;;;;;;;1.17;0.93;;;5.20;84.60;;;;;;5075110;28;20490;-75
2024/01/27 09:18:52;;;;;;;1.03;0.80;;;5.20;82.30;;;;;;5084311;28;20528;-73
2024/01/27 09:21:27;;;;;;;0.50;0.20;;;5.20;79.00;;;;;;5071438;28;20453;-72
2024/01/27 09:23:56;;;;;;;0.50;0.10;;;5.20;79.90;;;;;;5070604;28;20465;-74
2024/01/27 09:26:24;;;;;;;0.50;0.10;;;5.30;81.90;;;;;;5070224;28;20565;-74
2024/01/27 09:28:54;;;;;;;0.50;0.10;;;5.30;83.30;;;;;;5070742;28;20894;-73
2024/01/27 09:31:22;;;;;;;0.50;0.10;;;5.50;83.20;;;;;;5071844;28;20489;-75
2024/01/27 09:33:54;;;;;;;0.50;0.10;;;5.50;79.50;;;;;;5080551;28;20444;-77
2024/01/27 09:36:24;;;;;;;0.60;0.37;;;5.50;75.90;;;;;;5074083;28;20557;-75
2024/01/27 09:38:53;;;;;;;0.50;0.10;;;5.60;73.90;;;;;;5072287;28;20730;-72
2024/01/27 09:41:22;;;;;;;4.23;0.83;;;;;;;;;;5081058;28;20447;-75
2024/01/27 09:43:55;;;;;;;1.83;0.37;;;5.60;73.40;;;;;;5072604;28;20430;-76
2024/01/27 09:46:23;;;;;;;1.23;1.13;;;5.60;73.30;;;;;;5073221;28;20514;-77
2024/01/27 09:48:51;;;;;;;0.50;0.20;;;;;;;;;;5078109;28;20498;-74
2024/01/27 09:51:19;;;;;;;0.77;0.20;;;5.60;73.80;;;;;;5076435;28;20442;-75
2024/01/27 09:53:50;;;;;;;0.50;0.10;;;5.60;71.40;;;;;;5088293;28;20492;-73
2024/01/27 09:56:19;;;;;;;0.50;0.10;;;5.50;71.10;;;;;;5082974;28;20475;-71
2024/01/27 09:58:49;;;;;;;0.50;0.10;;;5.50;71.60;;;;;;5081536;28;20495;-72
2024/01/27 10:01:18;;;;;;;0.50;0.10;;;5.60;72.50;;;;;;5071854;28;20447;-74
2024/01/27 10:03:47;;;;;;;0.50;0.10;;;5.60;72.80;;;;;;5081273;28;20532;-74
2024/01/27 10:06:16;;;;;;;1.37;1.33;;;5.70;73.10;;;;;;5070501;28;20473;-73
2024/01/27 10:08:52;;;;;;;0.50;0.10;;;5.80;71.80;;;;;;5085263;28;20488;-73
2024/01/27 10:11:22;;;;;;;0.50;0.10;;;5.80;70.70;;;;;;5081476;28;20462;-74
2024/01/27 10:13:55;;;;;;;0.50;0.10;;;5.90;70.60;;;;;;5076961;28;21320;-76
2024/01/27 10:16:27;;;;;;;0.70;0.30;;;6.00;68.20;;;;;;5077297;28;20470;-74
2024/01/27 10:19:01;;;;;;;1.63;0.60;;;6.00;66.90;;;;;;5079127;28;20543;-74
2024/01/27 10:21:30;;;;;;;10.13;0.87;;;6.00;64.30;;;;;;5077971;28;20462;-75
2024/01/27 10:24:01;;;;;;;0.50;0.10;;;6.00;62.30;;;;;;5076985;28;20816;-74
2024/01/27 10:26:32;;;;;;;0.50;0.10;;;6.10;63.40;;;;;;5077477;28;20462;-77
2024/01/27 10:29:01;;;;;;;0.50;0.10;;;6.10;65.60;;;;;;5070726;28;20481;-76
2024/01/27 10:31:30;;;;;;;0.50;0.10;;;6.10;67.10;;;;;;5072224;28;20766;-76
2024/01/27 10:33:59;;;;;;;0.50;0.10;;;6.40;67.30;;;;;;5073963;28;20453;-74
2024/01/27 10:36:27;;;;;;;0.50;0.10;;;6.50;66.60;;;;;;5078649;28;20476;-74
2024/01/27 10:38:55;;;;;;;0.50;0.10;;;6.60;64.90;;;;;;5078516;28;20539;-74
2024/01/27 10:41:27;;;;;;;0.50;0.10;;;6.70;61.90;;;;;;5085233;28;20461;-76
2024/01/27 10:43:57;;;;;;;0.50;0.10;;;6.70;58.70;;;;;;5073878;28;20440;-74
2024/01/27 10:46:28;;;;;;;0.50;0.10;;;6.80;59.10;;;;;;5073846;28;20463;-76
2024/01/27 10:48:56;;;;;;;0.50;0.10;;;6.90;59.30;;;;;;5078471;28;20471;-76
2024/01/27 10:51:31;;;;;;;0.50;0.10;;;7.00;57.20;;;;;;5087199;28;20468;-76
2024/01/27 10:54:03;;;;;;;0.70;0.20;;;7.10;53.40;;;;;;5087233;28;20490;-75
2024/01/27 10:56:33;;;;;;;0.50;0.10;;;7.20;51.20;;;;;;5078610;28;20463;-74
2024/01/27 10:59:05;;;;;;;0.50;0.10;;;7.30;50.00;;;;;;5075418;28;20536;-78
2024/01/27 11:01:34;;;;;;;0.50;0.10;;;7.30;50.60;;;;;;5079012;28;20455;-76
2024/01/27 11:04:06;;;;;;;0.50;0.10;;;7.40;51.30;;;;;;5072432;28;20868;-76
2024/01/27 11:06:35;;;;;;;0.50;0.10;;;7.40;49.80;;;;;;5075359;28;20491;-77
2024/01/27 11:09:04;;;;;;;0.50;0.10;;;7.60;47.70;;;;;;5069543;28;20485;-74
2024/01/27 11:11:34;;;;;;;0.50;0.10;;;7.60;48.40;;;;;;5078624;28;20507;-76
2024/01/27 11:14:02;;;;;;;0.50;0.10;;;7.70;45.80;;;;;;5075211;28;20959;-76
2024/01/27 11:16:30;;;;;;;0.50;0.10;;;7.80;46.40;;;;;;5071749;28;20502;-78
2024/01/27 11:18:58;;;;;;;0.50;0.10;;;7.90;43.70;;;;;;5076152;28;20518;-76
2024/01/27 11:21:26;;;;;;;0.50;0.10;;;7.90;40.90;;;;;;5077666;28;20449;-75
2024/01/27 11:23:54;;;;;;;0.50;0.10;;;7.90;39.30;;;;;;5084565;28;20947;-76
2024/01/27 11:26:23;;;;;;;0.50;0.10;;;8.00;40.80;;;;;;5080566;28;20497;-73
2024/01/27 11:28:52;;;;;;;0.50;0.10;;;8.10;40.00;;;;;;5075116;28;20462;-73
2024/01/27 11:31:21;;;;;;;0.50;0.10;;;8.10;39.00;;;;;;5081960;28;20932;-75
2024/01/27 11:33:51;;;;;;;0.50;0.10;;;8.10;37.60;;;;;;5088821;28;20521;-74
2024/01/27 11:36:22;;;;;;;0.50;0.10;;;8.30;38.10;;;;;;5074912;28;20490;-75
2024/01/27 11:38:51;;;;;;;0.50;0.10;;;8.30;36.20;;;;;;5073885;28;20967;-74
2024/01/27 11:41:26;;;;;;;0.50;0.10;;;8.30;34.50;;;;;;5079489;28;20531;-75
2024/01/27 11:43:56;;;;;;;0.50;0.10;;;8.40;34.40;;;;;;5082588;28;20550;-75
2024/01/27 11:46:24;;;;;;;0.50;0.10;;;8.40;34.30;;;;;;5080161;28;20971;-75
2024/01/27 11:48:52;;;;;;;0.50;0.10;;;8.90;34.60;;;;;;5082678;28;20947;-74
2024/01/27 11:51:22;;;;;;;0.50;0.10;;;8.50;33.60;;;;;;5079717;28;20814;-74
2024/01/27 11:53:51;;;;;;;0.50;0.10;;;8.60;32.70;;;;;;5074697;28;20544;-77
2024/01/27 11:56:19;;;;;;;0.50;0.10;;;8.60;32.30;;;;;;5081412;28;20554;-76
2024/01/27 11:58:50;;;;;;;0.50;0.10;;;8.70;30.40;;;;;;5073073;28;20450;-74
2024/01/27 12:01:20;;;;;;;0.50;0.10;;;8.60;25.10;;;;;;5081462;28;20478;-73
2024/01/27 12:03:48;;;;;;;3.43;0.93;;;8.60;23.00;;;;;;5081166;28;20869;-74
2024/01/27 12:06:16;;;;;;;0.50;0.20;;;8.50;21.20;;;;;;5072346;28;20564;-74
2024/01/27 12:08:46;;;;;;;0.50;0.10;;;8.40;21.30;;;;;;5081490;28;20502;-75
2024/01/27 12:11:16;;;;;;;0.50;0.10;;;8.40;21.90;;;;;;5072864;28;20484;-74
2024/01/27 12:13:51;;;;;;;0.50;0.10;;;8.40;21.40;;;;;;5081631;28;20935;-77
2024/01/27 12:16:22;;;;;;;0.50;0.10;;;8.40;22.80;;;;;;5084544;28;20512;-75
2024/01/27 12:18:54;;;;;;;0.50;0.20;;;8.50;23.50;;;;;;5076076;28;20533;-73
2024/01/27 12:21:23;;;;;;;0.50;0.10;;;8.50;20.50;;;;;;5078101;28;20435;-74
2024/01/27 12:23:52;;;;;;;0.50;0.10;;;8.50;21.60;;;;;;5081678;28;21018;-77
2024/01/27 12:26:21;;;;;;;0.50;0.20;;;8.60;22.60;;;;;;5072942;28;20931;-76
2024/01/27 12:28:49;;;;;;;0.50;0.20;;;8.50;14.60;;;;;;5072515;28;20453;-76
2024/01/27 12:31:18;;;;;;;0.50;0.10;;;8.30;13.40;;;;;;5078441;28;20478;-74
2024/01/27 12:33:52;;;;;;;0.50;0.10;;;8.30;15.20;;;;;;5082704;28;20448;-75
2024/01/27 12:36:20;;;;;;;0.50;0.10;;;8.30;17.40;;;;;;5075019;28;20909;-78
2024/01/27 12:38:55;;;;;;;1.47;1.37;;;8.40;17.30;;;;;;5072433;28;20450;-77
2024/01/27 12:41:23;;;;;;;0.50;0.10;;;8.40;16.30;;;;;;5081591;28;20457;-76
2024/01/27 12:43:51;;;;;;;0.50;0.10;;;8.50;17.70;;;;;;5091171;28;20451;-76
2024/01/27 12:46:19;;;;;;;0.50;0.10;;;8.50;18.90;;;;;;5078372;28;20468;-75
2024/01/27 12:48:47;;;;;;;0.50;0.10;;;8.60;20.10;;;;;;5081457;28;20452;-76
2024/01/27 12:51:17;;;;;;;0.50;0.10;;;8.70;19.80;;;;;;5078796;28;20487;-77
2024/01/27 12:53:45;;;;;;;0.50;0.10;;;8.70;20.10;;;;;;5074249;28;20527;-76
2024/01/27 12:56:14;;;;;;;0.50;0.10;;;8.80;19.30;;;;;;5090163;28;20455;-78
2024/01/27 12:58:43;;;;;;;0.50;0.10;;;8.80;19.60;;;;;;5088574;28;20735;-76
2024/01/27 13:01:11;;;;;;;0.50;0.20;;;8.80;18.50;;;;;;5077626;28;20459;-77
2024/01/27 13:03:39;;;;;;;0.50;0.10;;;8.80;16.40;;;;;;5076936;28;20531;-75
2024/01/27 13:06:12;;;;;;;0.50;0.10;;;8.80;17.30;;;;;;5073034;28;20437;-75
2024/01/27 13:08:42;;;;;;;0.50;0.10;;;8.80;17.30;;;;;;5072248;28;20447;-76